Blackton, Arkansas
Current Conditions -  °F | °C
As of 8:15 PM on Sunday 25 Jan 2015 (Local Time) from KSGT Reporting Station
Overcast Overcast  
Wind Chill: 40°   Ceiling: 4100
Heat Index: 46°   Visibility: 10mi
Dew Point: 34°   Wind: 15mph
Humidity: 62%   Direction: 320°NW
Pressure: 29.95"   Gusts: NA
Location:  34.5919°N, 91.1409°W
Report Text: KSGT 260215Z AUTO 32013KT 10SM OVC041 08/01 A2995 RMK AO1
Loading
Personal Weather Stations






























Interactive Weather Map New forecast layout! Learn more

10-Day Weather Forecast

Advertisements
Track Severe Weather on mobile